sensor_id;sensor_type;location;lat;lon;timestamp;P1;durP1;ratioP1;P2;durP2;ratioP2
82473;SDS011;72350;53.232;6.556;2023-08-30T00:02:07;11.63;;;10.52;;
82473;SDS011;72350;53.232;6.556;2023-08-30T00:04:35;11.68;;;10.48;;
82473;SDS011;72350;53.232;6.556;2023-08-30T00:07:03;11.32;;;10.32;;
82473;SDS011;72350;53.232;6.556;2023-08-30T00:09:31;13.73;;;11.45;;
82473;SDS011;72350;53.232;6.556;2023-08-30T00:11:59;13.23;;;11.88;;
82473;SDS011;72350;53.232;6.556;2023-08-30T00:14:27;12.45;;;10.43;;
82473;SDS011;72350;53.232;6.556;2023-08-30T00:16:54;12.38;;;11.07;;
82473;SDS011;72350;53.232;6.556;2023-08-30T00:19:24;11.40;;;9.98;;
82473;SDS011;72350;53.232;6.556;2023-08-30T00:21:51;12.55;;;11.35;;
82473;SDS011;72350;53.232;6.556;2023-08-30T00:24:19;11.93;;;10.70;;
82473;SDS011;72350;53.232;6.556;2023-08-30T00:26:47;11.48;;;10.38;;
82473;SDS011;72350;53.232;6.556;2023-08-30T00:29:15;12.20;;;11.00;;
82473;SDS011;72350;53.232;6.556;2023-08-30T00:31:42;12.15;;;10.93;;
82473;SDS011;72350;53.232;6.556;2023-08-30T00:34:10;11.65;;;10.50;;
82473;SDS011;72350;53.232;6.556;2023-08-30T00:36:39;12.10;;;10.82;;
82473;SDS011;72350;53.232;6.556;2023-08-30T00:39:07;12.20;;;11.00;;
82473;SDS011;72350;53.232;6.556;2023-08-30T00:41:35;13.25;;;11.85;;
82473;SDS011;72350;53.232;6.556;2023-08-30T00:44:03;12.00;;;10.90;;
82473;SDS011;72350;53.232;6.556;2023-08-30T00:46:31;11.23;;;10.15;;
82473;SDS011;72350;53.232;6.556;2023-08-30T00:49:00;15.00;;;12.15;;
82473;SDS011;72350;53.232;6.556;2023-08-30T00:51:30;12.90;;;11.55;;
82473;SDS011;72350;53.232;6.556;2023-08-30T00:54:00;12.80;;;10.55;;
82473;SDS011;72350;53.232;6.556;2023-08-30T00:56:28;22.48;;;16.90;;
82473;SDS011;72350;53.232;6.556;2023-08-30T00:58:57;12.00;;;10.70;;
82473;SDS011;72350;53.232;6.556;2023-08-30T01:01:25;14.77;;;11.88;;
82473;SDS011;72350;53.232;6.556;2023-08-30T01:03:53;13.70;;;11.80;;
82473;SDS011;72350;53.232;6.556;2023-08-30T01:06:21;12.02;;;10.82;;
82473;SDS011;72350;53.232;6.556;2023-08-30T01:08:49;14.70;;;13.02;;
82473;SDS011;72350;53.232;6.556;2023-08-30T01:11:21;12.70;;;11.40;;
82473;SDS011;72350;53.232;6.556;2023-08-30T01:13:58;11.73;;;10.55;;
82473;SDS011;72350;53.232;6.556;2023-08-30T01:16:32;12.15;;;10.95;;
82473;SDS011;72350;53.232;6.556;2023-08-30T01:19:01;11.13;;;10.13;;
82473;SDS011;72350;53.232;6.556;2023-08-30T01:21:47;12.50;;;10.57;;
82473;SDS011;72350;53.232;6.556;2023-08-30T01:24:22;15.45;;;12.45;;
82473;SDS011;72350;53.232;6.556;2023-08-30T01:27:05;11.20;;;10.05;;
82473;SDS011;72350;53.232;6.556;2023-08-30T01:29:36;13.15;;;10.75;;
82473;SDS011;72350;53.232;6.556;2023-08-30T01:32:05;11.30;;;10.10;;
82473;SDS011;72350;53.232;6.556;2023-08-30T01:34:36;17.63;;;12.10;;
82473;SDS011;72350;53.232;6.556;2023-08-30T01:37:06;15.80;;;12.27;;
82473;SDS011;72350;53.232;6.556;2023-08-30T01:39:36;13.93;;;10.98;;
82473;SDS011;72350;53.232;6.556;2023-08-30T01:42:06;13.52;;;12.07;;
82473;SDS011;72350;53.232;6.556;2023-08-30T01:44:35;10.57;;;9.48;;
82473;SDS011;72350;53.232;6.556;2023-08-30T01:47:06;11.38;;;10.27;;
82473;SDS011;72350;53.232;6.556;2023-08-30T01:49:35;11.43;;;9.85;;
82473;SDS011;72350;53.232;6.556;2023-08-30T01:52:04;12.40;;;9.88;;
82473;SDS011;72350;53.232;6.556;2023-08-30T01:54:32;11.65;;;10.07;;
82473;SDS011;72350;53.232;6.556;2023-08-30T01:57:00;10.50;;;9.48;;
82473;SDS011;72350;53.232;6.556;2023-08-30T01:59:30;10.43;;;9.35;;
82473;SDS011;72350;53.232;6.556;2023-08-30T02:01:58;11.95;;;9.68;;
82473;SDS011;72350;53.232;6.556;2023-08-30T02:04:26;11.55;;;10.27;;
82473;SDS011;72350;53.232;6.556;2023-08-30T02:06:55;11.43;;;10.07;;
82473;SDS011;72350;53.232;6.556;2023-08-30T02:09:28;10.60;;;9.00;;
82473;SDS011;72350;53.232;6.556;2023-08-30T02:12:03;9.57;;;8.57;;
82473;SDS011;72350;53.232;6.556;2023-08-30T02:14:36;11.52;;;9.52;;
82473;SDS011;72350;53.232;6.556;2023-08-30T02:17:05;11.68;;;9.57;;
82473;SDS011;72350;53.232;6.556;2023-08-30T02:19:36;10.18;;;9.13;;
82473;SDS011;72350;53.232;6.556;2023-08-30T02:22:03;12.52;;;9.35;;
82473;SDS011;72350;53.232;6.556;2023-08-30T02:24:31;11.73;;;9.25;;
82473;SDS011;72350;53.232;6.556;2023-08-30T02:26:59;13.57;;;9.73;;
82473;SDS011;72350;53.232;6.556;2023-08-30T02:29:27;9.95;;;8.95;;
82473;SDS011;72350;53.232;6.556;2023-08-30T02:31:56;14.38;;;9.25;;
82473;SDS011;72350;53.232;6.556;2023-08-30T02:34:23;11.15;;;9.60;;
82473;SDS011;72350;53.232;6.556;2023-08-30T02:36:51;10.88;;;9.77;;
82473;SDS011;72350;53.232;6.556;2023-08-30T02:39:19;9.98;;;8.98;;
82473;SDS011;72350;53.232;6.556;2023-08-30T02:41:47;13.27;;;9.32;;
82473;SDS011;72350;53.232;6.556;2023-08-30T02:44:15;12.48;;;10.07;;
82473;SDS011;72350;53.232;6.556;2023-08-30T02:46:42;10.73;;;8.93;;
82473;SDS011;72350;53.232;6.556;2023-08-30T02:49:11;12.77;;;9.82;;
82473;SDS011;72350;53.232;6.556;2023-08-30T02:51:39;11.30;;;9.68;;
82473;SDS011;72350;53.232;6.556;2023-08-30T02:54:07;10.93;;;9.82;;
82473;SDS011;72350;53.232;6.556;2023-08-30T02:56:35;9.40;;;8.40;;
82473;SDS011;72350;53.232;6.556;2023-08-30T02:59:03;11.15;;;8.93;;
82473;SDS011;72350;53.232;6.556;2023-08-30T03:01:31;11.50;;;8.73;;
82473;SDS011;72350;53.232;6.556;2023-08-30T03:03:59;11.77;;;8.80;;
82473;SDS011;72350;53.232;6.556;2023-08-30T03:06:31;10.30;;;8.80;;
82473;SDS011;72350;53.232;6.556;2023-08-30T03:09:01;10.82;;;9.73;;
82473;SDS011;72350;53.232;6.556;2023-08-30T03:11:33;10.38;;;8.93;;
82473;SDS011;72350;53.232;6.556;2023-08-30T03:14:01;11.27;;;8.55;;
82473;SDS011;72350;53.232;6.556;2023-08-30T03:16:29;13.00;;;9.02;;
82473;SDS011;72350;53.232;6.556;2023-08-30T03:18:59;11.73;;;8.60;;
82473;SDS011;72350;53.232;6.556;2023-08-30T03:21:31;9.15;;;8.25;;
82473;SDS011;72350;53.232;6.556;2023-08-30T03:23:58;9.82;;;8.82;;
82473;SDS011;72350;53.232;6.556;2023-08-30T03:26:26;10.93;;;9.48;;
82473;SDS011;72350;53.232;6.556;2023-08-30T03:28:54;10.73;;;9.20;;
82473;SDS011;72350;53.232;6.556;2023-08-30T03:31:24;12.45;;;8.98;;
82473;SDS011;72350;53.232;6.556;2023-08-30T03:33:52;9.68;;;8.68;;
82473;SDS011;72350;53.232;6.556;2023-08-30T03:36:21;9.98;;;8.93;;
82473;SDS011;72350;53.232;6.556;2023-08-30T03:38:50;8.95;;;8.05;;
82473;SDS011;72350;53.232;6.556;2023-08-30T03:41:17;9.45;;;8.45;;
82473;SDS011;72350;53.232;6.556;2023-08-30T03:43:45;11.85;;;9.15;;
82473;SDS011;72350;53.232;6.556;2023-08-30T03:46:13;9.88;;;8.48;;
82473;SDS011;72350;53.232;6.556;2023-08-30T03:48:41;9.63;;;8.45;;
82473;SDS011;72350;53.232;6.556;2023-08-30T03:51:10;10.38;;;9.18;;
82473;SDS011;72350;53.232;6.556;2023-08-30T03:53:38;13.40;;;9.32;;
82473;SDS011;72350;53.232;6.556;2023-08-30T03:56:07;12.40;;;10.00;;
82473;SDS011;72350;53.232;6.556;2023-08-30T03:58:35;9.82;;;7.95;;
82473;SDS011;72350;53.232;6.556;2023-08-30T04:01:04;11.80;;;9.18;;
82473;SDS011;72350;53.232;6.556;2023-08-30T04:03:33;13.57;;;10.55;;
82473;SDS011;72350;53.232;6.556;2023-08-30T04:06:01;11.43;;;9.55;;
82473;SDS011;72350;53.232;6.556;2023-08-30T04:08:29;11.55;;;10.02;;
82473;SDS011;72350;53.232;6.556;2023-08-30T04:10:57;11.55;;;9.25;;
82473;SDS011;72350;53.232;6.556;2023-08-30T04:13:26;10.48;;;9.45;;
82473;SDS011;72350;53.232;6.556;2023-08-30T04:15:55;10.13;;;8.63;;
82473;SDS011;72350;53.232;6.556;2023-08-30T04:18:25;10.38;;;9.07;;
82473;SDS011;72350;53.232;6.556;2023-08-30T04:20:52;14.48;;;10.07;;
82473;SDS011;72350;53.232;6.556;2023-08-30T04:23:20;10.43;;;9.43;;
82473;SDS011;72350;53.232;6.556;2023-08-30T04:25:49;12.35;;;8.75;;
82473;SDS011;72350;53.232;6.556;2023-08-30T04:28:16;12.23;;;9.07;;
82473;SDS011;72350;53.232;6.556;2023-08-30T04:30:46;8.98;;;7.97;;
82473;SDS011;72350;53.232;6.556;2023-08-30T04:33:13;11.13;;;7.72;;
82473;SDS011;72350;53.232;6.556;2023-08-30T04:35:41;11.23;;;9.57;;
82473;SDS011;72350;53.232;6.556;2023-08-30T04:38:11;10.32;;;8.55;;
82473;SDS011;72350;53.232;6.556;2023-08-30T04:40:39;10.68;;;9.05;;
82473;SDS011;72350;53.232;6.556;2023-08-30T04:43:06;10.20;;;8.05;;
82473;SDS011;72350;53.232;6.556;2023-08-30T04:45:34;10.13;;;8.25;;
82473;SDS011;72350;53.232;6.556;2023-08-30T04:48:06;9.13;;;8.07;;
82473;SDS011;72350;53.232;6.556;2023-08-30T04:50:35;11.70;;;8.70;;
82473;SDS011;72350;53.232;6.556;2023-08-30T04:53:03;9.63;;;8.20;;
82473;SDS011;72350;53.232;6.556;2023-08-30T04:55:31;10.05;;;8.98;;
82473;SDS011;72350;53.232;6.556;2023-08-30T04:57:59;10.80;;;9.32;;
82473;SDS011;72350;53.232;6.556;2023-08-30T05:03:00;10.20;;;8.85;;
82473;SDS011;72350;53.232;6.556;2023-08-30T05:05:29;11.32;;;8.77;;
82473;SDS011;72350;53.232;6.556;2023-08-30T05:07:58;12.52;;;8.30;;
82473;SDS011;72350;53.232;6.556;2023-08-30T05:10:26;12.05;;;9.02;;
82473;SDS011;72350;53.232;6.556;2023-08-30T05:12:56;14.48;;;9.27;;
82473;SDS011;72350;53.232;6.556;2023-08-30T05:15:24;14.57;;;8.63;;
82473;SDS011;72350;53.232;6.556;2023-08-30T05:17:52;32.78;;;21.02;;
82473;SDS011;72350;53.232;6.556;2023-08-30T05:20:20;17.08;;;12.20;;
82473;SDS011;72350;53.232;6.556;2023-08-30T05:22:49;18.60;;;13.02;;
82473;SDS011;72350;53.232;6.556;2023-08-30T05:25:18;22.80;;;14.23;;
82473;SDS011;72350;53.232;6.556;2023-08-30T05:27:46;18.95;;;14.20;;
82473;SDS011;72350;53.232;6.556;2023-08-30T05:30:14;24.52;;;16.05;;
82473;SDS011;72350;53.232;6.556;2023-08-30T05:32:43;16.98;;;12.13;;
82473;SDS011;72350;53.232;6.556;2023-08-30T05:35:40;27.48;;;18.55;;
82473;SDS011;72350;53.232;6.556;2023-08-30T05:38:20;22.13;;;16.15;;
82473;SDS011;72350;53.232;6.556;2023-08-30T05:41:13;13.70;;;10.10;;
82473;SDS011;72350;53.232;6.556;2023-08-30T05:43:40;21.85;;;15.73;;
82473;SDS011;72350;53.232;6.556;2023-08-30T05:46:08;16.73;;;12.00;;
82473;SDS011;72350;53.232;6.556;2023-08-30T05:48:41;32.95;;;19.85;;
82473;SDS011;72350;53.232;6.556;2023-08-30T05:51:09;26.90;;;17.88;;
82473;SDS011;72350;53.232;6.556;2023-08-30T05:53:38;19.30;;;13.73;;
82473;SDS011;72350;53.232;6.556;2023-08-30T05:56:06;16.75;;;11.68;;
82473;SDS011;72350;53.232;6.556;2023-08-30T05:58:34;69.85;;;31.55;;
82473;SDS011;72350;53.232;6.556;2023-08-30T06:01:03;18.98;;;13.00;;
82473;SDS011;72350;53.232;6.556;2023-08-30T06:03:32;23.45;;;14.98;;
82473;SDS011;72350;53.232;6.556;2023-08-30T06:06:00;22.15;;;14.40;;
82473;SDS011;72350;53.232;6.556;2023-08-30T06:08:29;38.47;;;23.75;;
82473;SDS011;72350;53.232;6.556;2023-08-30T06:10:58;50.42;;;31.10;;
82473;SDS011;72350;53.232;6.556;2023-08-30T06:13:26;44.42;;;28.13;;
82473;SDS011;72350;53.232;6.556;2023-08-30T06:15:54;39.83;;;24.10;;
82473;SDS011;72350;53.232;6.556;2023-08-30T06:18:22;28.40;;;18.63;;
82473;SDS011;72350;53.232;6.556;2023-08-30T06:20:50;55.70;;;34.50;;
82473;SDS011;72350;53.232;6.556;2023-08-30T06:23:18;45.33;;;26.95;;
82473;SDS011;72350;53.232;6.556;2023-08-30T06:25:52;43.30;;;25.95;;
82473;SDS011;72350;53.232;6.556;2023-08-30T06:28:22;91.63;;;53.85;;
82473;SDS011;72350;53.232;6.556;2023-08-30T06:30:50;48.15;;;30.30;;
82473;SDS011;72350;53.232;6.556;2023-08-30T06:33:18;66.65;;;38.70;;
82473;SDS011;72350;53.232;6.556;2023-08-30T06:35:47;44.22;;;26.08;;
82473;SDS011;72350;53.232;6.556;2023-08-30T06:38:16;123.70;;;72.55;;
82473;SDS011;72350;53.232;6.556;2023-08-30T06:40:44;24.95;;;16.08;;
82473;SDS011;72350;53.232;6.556;2023-08-30T06:43:12;143.52;;;86.38;;
82473;SDS011;72350;53.232;6.556;2023-08-30T06:45:42;124.00;;;74.95;;
82473;SDS011;72350;53.232;6.556;2023-08-30T06:48:09;61.83;;;34.30;;
82473;SDS011;72350;53.232;6.556;2023-08-30T06:50:38;57.00;;;32.65;;
82473;SDS011;72350;53.232;6.556;2023-08-30T06:53:06;86.28;;;50.78;;
82473;SDS011;72350;53.232;6.556;2023-08-30T06:55:35;32.25;;;21.23;;
82473;SDS011;72350;53.232;6.556;2023-08-30T06:58:04;23.73;;;15.82;;
82473;SDS011;72350;53.232;6.556;2023-08-30T07:00:33;18.65;;;12.95;;
82473;SDS011;72350;53.232;6.556;2023-08-30T07:03:02;17.65;;;12.02;;
82473;SDS011;72350;53.232;6.556;2023-08-30T07:05:30;68.72;;;39.38;;
82473;SDS011;72350;53.232;6.556;2023-08-30T07:07:58;22.58;;;16.00;;
82473;SDS011;72350;53.232;6.556;2023-08-30T07:10:26;29.27;;;15.48;;
82473;SDS011;72350;53.232;6.556;2023-08-30T07:12:54;24.27;;;16.23;;
82473;SDS011;72350;53.232;6.556;2023-08-30T07:15:22;40.80;;;24.63;;
82473;SDS011;72350;53.232;6.556;2023-08-30T07:17:50;29.77;;;14.25;;
82473;SDS011;72350;53.232;6.556;2023-08-30T07:20:22;21.55;;;13.02;;
82473;SDS011;72350;53.232;6.556;2023-08-30T07:22:50;50.95;;;30.98;;
82473;SDS011;72350;53.232;6.556;2023-08-30T07:25:17;64.00;;;36.50;;
82473;SDS011;72350;53.232;6.556;2023-08-30T07:27:45;55.63;;;34.38;;
82473;SDS011;72350;53.232;6.556;2023-08-30T07:30:13;21.20;;;14.00;;
82473;SDS011;72350;53.232;6.556;2023-08-30T07:32:41;20.73;;;13.23;;
82473;SDS011;72350;53.232;6.556;2023-08-30T07:35:09;25.50;;;16.13;;
82473;SDS011;72350;53.232;6.556;2023-08-30T07:37:41;16.38;;;11.05;;
82473;SDS011;72350;53.232;6.556;2023-08-30T07:40:10;36.88;;;23.08;;
82473;SDS011;72350;53.232;6.556;2023-08-30T07:42:38;37.33;;;23.27;;
82473;SDS011;72350;53.232;6.556;2023-08-30T07:45:06;63.58;;;38.72;;
82473;SDS011;72350;53.232;6.556;2023-08-30T07:47:35;17.83;;;12.98;;
82473;SDS011;72350;53.232;6.556;2023-08-30T07:50:04;14.38;;;10.35;;
82473;SDS011;72350;53.232;6.556;2023-08-30T07:52:33;21.42;;;14.65;;
82473;SDS011;72350;53.232;6.556;2023-08-30T07:55:13;23.02;;;14.38;;
82473;SDS011;72350;53.232;6.556;2023-08-30T07:57:41;23.30;;;11.63;;
82473;SDS011;72350;53.232;6.556;2023-08-30T08:00:09;27.77;;;9.45;;
82473;SDS011;72350;53.232;6.556;2023-08-30T08:02:38;33.63;;;16.35;;
82473;SDS011;72350;53.232;6.556;2023-08-30T08:05:07;28.83;;;16.05;;
82473;SDS011;72350;53.232;6.556;2023-08-30T08:07:37;33.15;;;20.70;;
82473;SDS011;72350;53.232;6.556;2023-08-30T08:10:06;29.95;;;18.42;;
82473;SDS011;72350;53.232;6.556;2023-08-30T08:12:36;23.27;;;13.73;;
82473;SDS011;72350;53.232;6.556;2023-08-30T08:15:04;13.57;;;8.95;;
82473;SDS011;72350;53.232;6.556;2023-08-30T08:17:33;24.58;;;15.05;;
82473;SDS011;72350;53.232;6.556;2023-08-30T08:20:01;18.33;;;12.35;;
82473;SDS011;72350;53.232;6.556;2023-08-30T08:22:29;13.63;;;8.00;;
82473;SDS011;72350;53.232;6.556;2023-08-30T08:24:57;40.15;;;26.55;;
82473;SDS011;72350;53.232;6.556;2023-08-30T08:27:25;15.02;;;9.38;;
82473;SDS011;72350;53.232;6.556;2023-08-30T08:29:54;22.25;;;14.82;;
82473;SDS011;72350;53.232;6.556;2023-08-30T08:32:22;38.20;;;23.48;;
82473;SDS011;72350;53.232;6.556;2023-08-30T08:34:50;20.25;;;12.65;;
82473;SDS011;72350;53.232;6.556;2023-08-30T08:37:18;19.48;;;11.93;;
82473;SDS011;72350;53.232;6.556;2023-08-30T08:39:45;12.57;;;9.10;;
82473;SDS011;72350;53.232;6.556;2023-08-30T08:44:46;49.03;;;29.05;;
82473;SDS011;72350;53.232;6.556;2023-08-30T08:47:16;26.60;;;17.45;;
82473;SDS011;72350;53.232;6.556;2023-08-30T08:49:46;19.90;;;13.68;;
82473;SDS011;72350;53.232;6.556;2023-08-30T08:52:14;18.25;;;9.30;;
82473;SDS011;72350;53.232;6.556;2023-08-30T08:54:56;25.88;;;16.45;;
82473;SDS011;72350;53.232;6.556;2023-08-30T08:57:26;17.63;;;9.02;;
82473;SDS011;72350;53.232;6.556;2023-08-30T08:59:56;26.35;;;14.85;;
82473;SDS011;72350;53.232;6.556;2023-08-30T09:02:25;11.35;;;8.60;;
82473;SDS011;72350;53.232;6.556;2023-08-30T09:04:55;23.33;;;15.15;;
82473;SDS011;72350;53.232;6.556;2023-08-30T09:07:25;14.60;;;8.48;;
82473;SDS011;72350;53.232;6.556;2023-08-30T09:09:54;16.77;;;11.80;;
82473;SDS011;72350;53.232;6.556;2023-08-30T09:12:22;17.13;;;9.80;;
82473;SDS011;72350;53.232;6.556;2023-08-30T09:14:54;18.80;;;10.65;;
82473;SDS011;72350;53.232;6.556;2023-08-30T09:17:22;12.45;;;9.13;;
82473;SDS011;72350;53.232;6.556;2023-08-30T09:20:06;17.48;;;11.15;;
82473;SDS011;72350;53.232;6.556;2023-08-30T09:25:09;21.90;;;14.88;;
82473;SDS011;72350;53.232;6.556;2023-08-30T09:27:38;19.73;;;10.27;;
82473;SDS011;72350;53.232;6.556;2023-08-30T09:30:08;13.40;;;9.50;;
82473;SDS011;72350;53.232;6.556;2023-08-30T09:32:41;12.77;;;10.27;;
82473;SDS011;72350;53.232;6.556;2023-08-30T09:35:09;12.93;;;9.13;;
82473;SDS011;72350;53.232;6.556;2023-08-30T09:37:38;10.40;;;8.35;;
82473;SDS011;72350;53.232;6.556;2023-08-30T09:40:06;13.57;;;9.45;;
82473;SDS011;72350;53.232;6.556;2023-08-30T09:42:34;36.40;;;10.18;;
82473;SDS011;72350;53.232;6.556;2023-08-30T09:45:16;13.02;;;8.57;;
82473;SDS011;72350;53.232;6.556;2023-08-30T09:47:48;13.55;;;8.90;;
82473;SDS011;72350;53.232;6.556;2023-08-30T09:50:16;23.80;;;13.75;;
82473;SDS011;72350;53.232;6.556;2023-08-30T09:52:46;10.82;;;7.35;;
82473;SDS011;72350;53.232;6.556;2023-08-30T09:55:16;20.15;;;10.48;;
82473;SDS011;72350;53.232;6.556;2023-08-30T09:57:46;11.02;;;8.50;;
82473;SDS011;72350;53.232;6.556;2023-08-30T10:00:16;13.50;;;9.07;;
82473;SDS011;72350;53.232;6.556;2023-08-30T10:02:44;16.55;;;9.85;;
82473;SDS011;72350;53.232;6.556;2023-08-30T10:05:33;14.32;;;9.68;;
82473;SDS011;72350;53.232;6.556;2023-08-30T10:08:03;13.30;;;8.70;;
82473;SDS011;72350;53.232;6.556;2023-08-30T10:10:34;8.75;;;7.35;;
82473;SDS011;72350;53.232;6.556;2023-08-30T10:13:06;13.00;;;9.70;;
82473;SDS011;72350;53.232;6.556;2023-08-30T10:15:39;13.05;;;8.73;;
82473;SDS011;72350;53.232;6.556;2023-08-30T10:18:14;36.22;;;10.75;;
82473;SDS011;72350;53.232;6.556;2023-08-30T10:20:47;16.88;;;9.77;;
82473;SDS011;72350;53.232;6.556;2023-08-30T10:23:15;11.70;;;7.03;;
82473;SDS011;72350;53.232;6.556;2023-08-30T10:25:45;14.32;;;6.35;;
82473;SDS011;72350;53.232;6.556;2023-08-30T10:28:17;13.13;;;7.75;;
82473;SDS011;72350;53.232;6.556;2023-08-30T10:30:48;16.33;;;5.97;;
82473;SDS011;72350;53.232;6.556;2023-08-30T10:33:16;9.52;;;6.18;;
82473;SDS011;72350;53.232;6.556;2023-08-30T10:35:49;8.60;;;6.57;;
82473;SDS011;72350;53.232;6.556;2023-08-30T10:40:52;8.40;;;5.35;;
82473;SDS011;72350;53.232;6.556;2023-08-30T10:43:30;9.38;;;6.13;;
82473;SDS011;72350;53.232;6.556;2023-08-30T10:46:01;10.82;;;7.57;;
82473;SDS011;72350;53.232;6.556;2023-08-30T10:48:36;9.85;;;7.60;;
82473;SDS011;72350;53.232;6.556;2023-08-30T10:51:19;9.15;;;6.47;;
82473;SDS011;72350;53.232;6.556;2023-08-30T10:53:55;9.85;;;6.38;;
82473;SDS011;72350;53.232;6.556;2023-08-30T10:56:28;12.20;;;8.15;;
82473;SDS011;72350;53.232;6.556;2023-08-30T10:58:57;12.18;;;6.32;;
82473;SDS011;72350;53.232;6.556;2023-08-30T11:01:25;8.82;;;7.68;;
82473;SDS011;72350;53.232;6.556;2023-08-30T11:03:54;10.82;;;7.45;;
82473;SDS011;72350;53.232;6.556;2023-08-30T11:06:42;9.30;;;7.60;;
82473;SDS011;72350;53.232;6.556;2023-08-30T11:09:12;8.77;;;7.63;;
82473;SDS011;72350;53.232;6.556;2023-08-30T11:11:40;11.05;;;7.22;;
82473;SDS011;72350;53.232;6.556;2023-08-30T11:14:08;10.07;;;7.20;;
82473;SDS011;72350;53.232;6.556;2023-08-30T11:16:36;7.05;;;5.60;;
82473;SDS011;72350;53.232;6.556;2023-08-30T11:19:05;7.82;;;6.10;;
82473;SDS011;72350;53.232;6.556;2023-08-30T11:21:34;7.78;;;4.97;;
82473;SDS011;72350;53.232;6.556;2023-08-30T11:24:06;7.20;;;5.38;;
82473;SDS011;72350;53.232;6.556;2023-08-30T11:26:34;9.80;;;5.88;;
82473;SDS011;72350;53.232;6.556;2023-08-30T11:29:06;6.70;;;5.57;;
82473;SDS011;72350;53.232;6.556;2023-08-30T11:31:34;8.05;;;5.38;;
82473;SDS011;72350;53.232;6.556;2023-08-30T11:34:03;5.93;;;4.63;;
82473;SDS011;72350;53.232;6.556;2023-08-30T11:36:31;7.80;;;4.82;;
82473;SDS011;72350;53.232;6.556;2023-08-30T11:39:03;6.47;;;5.20;;
82473;SDS011;72350;53.232;6.556;2023-08-30T11:41:34;9.45;;;5.80;;
82473;SDS011;72350;53.232;6.556;2023-08-30T11:44:02;7.93;;;5.93;;
82473;SDS011;72350;53.232;6.556;2023-08-30T11:46:31;8.75;;;5.82;;
82473;SDS011;72350;53.232;6.556;2023-08-30T11:48:59;7.30;;;5.43;;
82473;SDS011;72350;53.232;6.556;2023-08-30T11:51:26;7.35;;;4.95;;
82473;SDS011;72350;53.232;6.556;2023-08-30T11:53:54;7.22;;;5.80;;
82473;SDS011;72350;53.232;6.556;2023-08-30T11:56:24;6.18;;;5.57;;
82473;SDS011;72350;53.232;6.556;2023-08-30T11:58:52;6.05;;;4.68;;
82473;SDS011;72350;53.232;6.556;2023-08-30T12:01:20;5.50;;;4.05;;
82473;SDS011;72350;53.232;6.556;2023-08-30T12:03:48;5.75;;;4.40;;
82473;SDS011;72350;53.232;6.556;2023-08-30T12:06:17;7.82;;;4.40;;
82473;SDS011;72350;53.232;6.556;2023-08-30T12:08:45;4.35;;;3.78;;
82473;SDS011;72350;53.232;6.556;2023-08-30T12:11:19;6.03;;;4.50;;
82473;SDS011;72350;53.232;6.556;2023-08-30T12:13:48;6.53;;;4.82;;
82473;SDS011;72350;53.232;6.556;2023-08-30T12:16:17;4.07;;;3.55;;
82473;SDS011;72350;53.232;6.556;2023-08-30T12:18:47;5.82;;;4.20;;
82473;SDS011;72350;53.232;6.556;2023-08-30T12:21:14;5.13;;;3.63;;
82473;SDS011;72350;53.232;6.556;2023-08-30T12:23:42;6.07;;;4.60;;
82473;SDS011;72350;53.232;6.556;2023-08-30T12:26:10;6.78;;;4.38;;
82473;SDS011;72350;53.232;6.556;2023-08-30T12:28:40;4.25;;;3.85;;
82473;SDS011;72350;53.232;6.556;2023-08-30T12:31:12;5.50;;;3.95;;
82473;SDS011;72350;53.232;6.556;2023-08-30T12:33:40;5.60;;;4.90;;
82473;SDS011;72350;53.232;6.556;2023-08-30T12:36:08;7.32;;;5.38;;
82473;SDS011;72350;53.232;6.556;2023-08-30T12:38:35;7.05;;;5.40;;
82473;SDS011;72350;53.232;6.556;2023-08-30T12:41:03;7.05;;;5.38;;
82473;SDS011;72350;53.232;6.556;2023-08-30T12:43:31;5.50;;;4.65;;
82473;SDS011;72350;53.232;6.556;2023-08-30T12:45:59;8.43;;;5.10;;
82473;SDS011;72350;53.232;6.556;2023-08-30T12:48:28;6.78;;;5.32;;
82473;SDS011;72350;53.232;6.556;2023-08-30T12:50:56;5.40;;;4.90;;
82473;SDS011;72350;53.232;6.556;2023-08-30T12:53:24;8.23;;;6.90;;
82473;SDS011;72350;53.232;6.556;2023-08-30T12:55:54;10.50;;;6.88;;
82473;SDS011;72350;53.232;6.556;2023-08-30T12:58:22;10.25;;;6.93;;
82473;SDS011;72350;53.232;6.556;2023-08-30T13:00:51;9.00;;;6.53;;
82473;SDS011;72350;53.232;6.556;2023-08-30T13:03:19;10.13;;;6.15;;
82473;SDS011;72350;53.232;6.556;2023-08-30T13:05:48;9.23;;;6.90;;
82473;SDS011;72350;53.232;6.556;2023-08-30T13:08:16;8.65;;;7.25;;
82473;SDS011;72350;53.232;6.556;2023-08-30T13:10:43;8.50;;;7.70;;
82473;SDS011;72350;53.232;6.556;2023-08-30T13:13:11;7.43;;;6.32;;
82473;SDS011;72350;53.232;6.556;2023-08-30T13:15:40;7.90;;;7.18;;
82473;SDS011;72350;53.232;6.556;2023-08-30T13:18:07;8.55;;;6.63;;
82473;SDS011;72350;53.232;6.556;2023-08-30T13:20:38;9.43;;;7.18;;
82473;SDS011;72350;53.232;6.556;2023-08-30T13:23:08;10.00;;;7.40;;
82473;SDS011;72350;53.232;6.556;2023-08-30T13:25:38;8.98;;;7.85;;
82473;SDS011;72350;53.232;6.556;2023-08-30T13:28:06;9.07;;;8.00;;
82473;SDS011;72350;53.232;6.556;2023-08-30T13:30:35;12.10;;;9.43;;
82473;SDS011;72350;53.232;6.556;2023-08-30T13:33:03;10.63;;;8.32;;
82473;SDS011;72350;53.232;6.556;2023-08-30T13:35:32;9.18;;;6.68;;
82473;SDS011;72350;53.232;6.556;2023-08-30T13:38:01;9.25;;;8.27;;
82473;SDS011;72350;53.232;6.556;2023-08-30T13:40:30;10.10;;;8.65;;
82473;SDS011;72350;53.232;6.556;2023-08-30T13:42:58;8.77;;;7.18;;
82473;SDS011;72350;53.232;6.556;2023-08-30T13:45:26;10.43;;;7.82;;
82473;SDS011;72350;53.232;6.556;2023-08-30T13:47:55;8.68;;;7.25;;
82473;SDS011;72350;53.232;6.556;2023-08-30T13:50:23;6.35;;;5.60;;
82473;SDS011;72350;53.232;6.556;2023-08-30T13:52:53;7.72;;;6.82;;
82473;SDS011;72350;53.232;6.556;2023-08-30T13:55:21;7.20;;;6.28;;
82473;SDS011;72350;53.232;6.556;2023-08-30T13:57:50;6.65;;;5.88;;
82473;SDS011;72350;53.232;6.556;2023-08-30T14:00:20;7.30;;;5.20;;
82473;SDS011;72350;53.232;6.556;2023-08-30T14:02:48;7.82;;;6.03;;
82473;SDS011;72350;53.232;6.556;2023-08-30T14:05:16;7.00;;;6.20;;
82473;SDS011;72350;53.232;6.556;2023-08-30T14:07:44;8.07;;;7.15;;
82473;SDS011;72350;53.232;6.556;2023-08-30T14:10:13;9.50;;;7.20;;
82473;SDS011;72350;53.232;6.556;2023-08-30T14:12:46;8.90;;;6.90;;
82473;SDS011;72350;53.232;6.556;2023-08-30T14:15:16;9.13;;;7.43;;
82473;SDS011;72350;53.232;6.556;2023-08-30T14:17:44;13.32;;;10.15;;
82473;SDS011;72350;53.232;6.556;2023-08-30T14:20:12;8.57;;;7.25;;
82473;SDS011;72350;53.232;6.556;2023-08-30T14:22:40;9.88;;;8.07;;
82473;SDS011;72350;53.232;6.556;2023-08-30T14:25:08;7.90;;;6.50;;
82473;SDS011;72350;53.232;6.556;2023-08-30T14:27:38;10.00;;;7.05;;
82473;SDS011;72350;53.232;6.556;2023-08-30T14:30:06;8.80;;;7.28;;
82473;SDS011;72350;53.232;6.556;2023-08-30T14:32:36;8.38;;;7.30;;
82473;SDS011;72350;53.232;6.556;2023-08-30T14:35:04;8.38;;;7.30;;
82473;SDS011;72350;53.232;6.556;2023-08-30T14:37:32;8.90;;;7.30;;
82473;SDS011;72350;53.232;6.556;2023-08-30T14:40:03;7.53;;;6.70;;
82473;SDS011;72350;53.232;6.556;2023-08-30T14:42:31;7.85;;;7.00;;
82473;SDS011;72350;53.232;6.556;2023-08-30T14:45:00;9.38;;;8.27;;
82473;SDS011;72350;53.232;6.556;2023-08-30T14:47:29;8.43;;;7.63;;
82473;SDS011;72350;53.232;6.556;2023-08-30T14:49:59;7.15;;;6.45;;
82473;SDS011;72350;53.232;6.556;2023-08-30T14:52:28;6.43;;;5.82;;
82473;SDS011;72350;53.232;6.556;2023-08-30T14:54:56;6.78;;;6.05;;
82473;SDS011;72350;53.232;6.556;2023-08-30T14:57:23;7.43;;;6.10;;